createdAt,value
2024-02-24T00:00:43.951Z,7.35
2024-02-24T00:03:10.852Z,7.35
2024-02-24T00:05:38.046Z,7.36
2024-02-24T00:08:06.521Z,7.37
2024-02-24T00:10:33.736Z,7.38
2024-02-24T00:13:00.795Z,7.38
2024-02-24T00:15:29.164Z,7.39
2024-02-24T00:17:56.149Z,7.38
2024-02-24T00:20:23.386Z,7.39
2024-02-24T00:22:51.765Z,7.39
2024-02-24T00:25:18.979Z,7.39
2024-02-24T00:27:46.020Z,7.39
2024-02-24T00:30:14.535Z,7.40
2024-02-24T00:32:41.704Z,7.39
2024-02-24T00:35:08.711Z,7.39
2024-02-24T00:37:37.084Z,7.39
2024-02-24T00:40:04.247Z,7.39
2024-02-24T00:42:31.378Z,7.40
2024-02-24T00:44:59.663Z,7.41
2024-02-24T00:47:27.008Z,7.40
2024-02-24T00:49:54.462Z,7.40
2024-02-24T00:52:22.738Z,7.39
2024-02-24T00:54:49.801Z,7.40
2024-02-24T00:57:17.185Z,7.40
2024-02-24T00:59:45.510Z,7.40
2024-02-24T01:02:12.573Z,7.40
2024-02-24T01:04:39.848Z,7.40
2024-02-24T01:07:07.380Z,7.40
2024-02-24T01:09:34.722Z,7.40
2024-02-24T01:12:01.802Z,7.42
2024-02-24T01:14:30.165Z,7.44
2024-02-24T01:16:57.513Z,7.45
2024-02-24T01:19:24.838Z,7.48
2024-02-24T01:21:55.219Z,7.50
2024-02-24T01:24:23.151Z,7.52
2024-02-24T01:26:52.694Z,7.54
2024-02-24T01:29:19.931Z,7.57
2024-02-24T01:31:47.351Z,7.59
2024-02-24T01:34:15.829Z,7.61
2024-02-24T01:36:42.892Z,7.63
2024-02-24T01:39:09.821Z,7.64
2024-02-24T01:41:38.214Z,7.66
2024-02-24T01:44:05.623Z,7.67
2024-02-24T01:46:32.900Z,7.68
2024-02-24T01:49:01.309Z,7.70
2024-02-24T01:51:28.535Z,7.70
2024-02-24T01:53:55.897Z,7.71
2024-02-24T01:56:24.098Z,7.73
2024-02-24T01:58:51.332Z,7.74
2024-02-24T02:01:18.474Z,7.76
2024-02-24T02:03:46.959Z,7.77
2024-02-24T02:06:14.211Z,7.79
2024-02-24T02:08:41.076Z,7.80
2024-02-24T02:11:09.468Z,7.81
2024-02-24T02:13:36.868Z,7.83
2024-02-24T02:16:04.022Z,7.84
2024-02-24T02:18:34.581Z,7.84
2024-02-24T02:21:02.722Z,7.84
2024-02-24T02:23:30.818Z,7.84
2024-02-24T02:25:57.930Z,7.83
2024-02-24T02:28:24.889Z,7.83
2024-02-24T02:30:52.951Z,7.83
2024-02-24T02:33:20.174Z,7.82
2024-02-24T02:35:47.607Z,7.82
2024-02-24T02:38:15.905Z,7.81
2024-02-24T02:40:42.891Z,7.81
2024-02-24T02:43:09.836Z,7.80
2024-02-24T02:45:38.285Z,7.79
2024-02-24T02:48:05.243Z,7.78
2024-02-24T02:50:32.491Z,7.78
2024-02-24T02:53:00.788Z,7.78
2024-02-24T02:55:27.723Z,7.77
2024-02-24T02:57:54.683Z,7.77
2024-02-24T03:00:23.347Z,7.76
2024-02-24T03:02:50.255Z,7.76
2024-02-24T03:05:17.387Z,7.75
2024-02-24T03:07:45.667Z,7.75
2024-02-24T03:10:12.599Z,7.76
2024-02-24T03:12:39.744Z,7.76
2024-02-24T03:15:07.991Z,7.77
2024-02-24T03:17:35.511Z,7.77
2024-02-24T03:20:02.600Z,7.78
2024-02-24T03:22:31.080Z,7.79
2024-02-24T03:24:58.128Z,7.81
2024-02-24T03:27:25.187Z,7.82
2024-02-24T03:29:53.369Z,7.82
2024-02-24T03:32:20.296Z,7.83
2024-02-24T03:34:47.335Z,7.82
2024-02-24T03:37:15.503Z,7.82
2024-02-24T03:39:42.446Z,7.81
2024-02-24T03:42:09.601Z,7.80
2024-02-24T03:44:37.793Z,7.79
2024-02-24T03:47:04.743Z,7.78
2024-02-24T03:49:31.824Z,7.76
2024-02-24T03:52:00.146Z,7.74
2024-02-24T03:54:27.210Z,7.72
2024-02-24T03:56:54.145Z,7.69
2024-02-24T03:59:22.673Z,7.65
2024-02-24T04:01:50.045Z,7.63
2024-02-24T04:04:17.078Z,7.61
2024-02-24T04:06:45.663Z,7.58
2024-02-24T04:09:12.861Z,7.56
2024-02-24T04:11:40.004Z,7.53
2024-02-24T04:14:08.537Z,7.52
2024-02-24T04:16:35.639Z,7.51
2024-02-24T04:19:02.924Z,7.48
2024-02-24T04:21:31.252Z,7.46
2024-02-24T04:23:58.457Z,7.44
2024-02-24T04:26:25.590Z,7.43
2024-02-24T04:28:53.926Z,7.40
2024-02-24T04:31:20.871Z,7.37
2024-02-24T04:33:47.901Z,7.33
2024-02-24T04:36:16.400Z,7.22
2024-02-24T04:38:43.461Z,6.95
2024-02-24T04:41:10.440Z,6.64
2024-02-24T04:43:39.187Z,6.38
2024-02-24T04:46:06.340Z,6.23
2024-02-24T04:48:33.549Z,6.08
2024-02-24T04:51:03.365Z,5.94
2024-02-24T04:53:31.214Z,5.80
2024-02-24T04:56:00.768Z,5.66
2024-02-24T04:58:27.822Z,5.57
2024-02-24T05:00:54.905Z,5.46
2024-02-24T05:03:23.328Z,5.30
2024-02-24T05:05:50.443Z,5.17
2024-02-24T05:08:17.746Z,5.09
2024-02-24T05:10:45.903Z,5.02
2024-02-24T05:13:12.845Z,4.92
2024-02-24T05:15:39.580Z,4.84
2024-02-24T05:18:07.732Z,4.79
2024-02-24T05:20:34.809Z,4.75
2024-02-24T05:23:01.652Z,4.70
2024-02-24T05:25:29.811Z,4.65
2024-02-24T05:27:56.770Z,4.61
2024-02-24T05:30:23.927Z,4.58
2024-02-24T05:32:53.537Z,4.56
2024-02-24T05:35:21.927Z,4.53
2024-02-24T05:37:51.191Z,4.51
2024-02-24T05:40:18.151Z,4.50
2024-02-24T05:42:45.080Z,4.52
2024-02-24T05:45:13.145Z,4.53
2024-02-24T05:47:40.177Z,4.54
2024-02-24T05:50:07.577Z,4.55
2024-02-24T05:52:35.833Z,4.56
2024-02-24T05:55:02.791Z,4.56
2024-02-24T05:57:29.822Z,4.55
2024-02-24T05:59:58.019Z,4.53
2024-02-24T06:02:25.056Z,4.50
2024-02-24T06:04:52.096Z,4.46
2024-02-24T06:07:20.462Z,4.41
2024-02-24T06:09:47.643Z,4.40
2024-02-24T06:12:15.372Z,4.38
2024-02-24T06:14:43.694Z,4.37
2024-02-24T06:17:10.828Z,4.35
2024-02-24T06:19:38.032Z,4.31
2024-02-24T06:22:06.427Z,4.29
2024-02-24T06:24:33.499Z,4.27
2024-02-24T06:27:00.750Z,4.25
2024-02-24T06:29:29.088Z,4.25
2024-02-24T06:31:56.260Z,4.26
2024-02-24T06:34:23.548Z,4.27
2024-02-24T06:36:51.874Z,4.27
2024-02-24T06:39:18.620Z,4.28
2024-02-24T06:41:45.606Z,4.28
2024-02-24T06:44:14.169Z,4.29
2024-02-24T06:46:41.110Z,4.31
2024-02-24T06:49:08.443Z,4.34
2024-02-24T06:51:36.723Z,4.35
2024-02-24T06:54:03.984Z,4.36
2024-02-24T06:56:31.504Z,4.39
2024-02-24T06:58:59.661Z,4.40
2024-02-24T07:01:26.556Z,4.42
2024-02-24T07:03:53.522Z,4.46
2024-02-24T07:06:21.793Z,4.50
2024-02-24T07:08:48.748Z,4.53
2024-02-24T07:11:16.078Z,4.58
2024-02-24T07:13:44.363Z,4.63
2024-02-24T07:16:11.617Z,4.66
2024-02-24T07:18:38.888Z,4.72
2024-02-24T07:21:07.448Z,4.81
2024-02-24T07:23:34.636Z,4.88
2024-02-24T07:26:01.850Z,4.94
2024-02-24T07:28:30.095Z,4.93
2024-02-24T07:30:57.153Z,4.92
2024-02-24T07:33:24.086Z,4.91
2024-02-24T07:35:52.878Z,4.95
2024-02-24T07:38:19.964Z,4.99
2024-02-24T07:40:46.976Z,5.02
2024-02-24T07:43:15.555Z,5.08
2024-02-24T07:45:42.420Z,5.16
2024-02-24T07:48:09.578Z,5.29
2024-02-24T07:50:38.076Z,5.49
2024-02-24T07:53:05.220Z,5.72
2024-02-24T07:55:32.268Z,5.93
2024-02-24T07:58:00.611Z,6.11
2024-02-24T08:00:27.965Z,6.27
2024-02-24T08:02:55.049Z,6.49
2024-02-24T08:05:23.417Z,6.74
2024-02-24T08:07:50.512Z,6.94
2024-02-24T08:10:17.492Z,7.18
2024-02-24T08:12:45.743Z,7.36
2024-02-24T08:15:12.680Z,7.50
2024-02-24T08:17:39.935Z,7.62
2024-02-24T08:20:08.318Z,7.75
2024-02-24T08:22:35.676Z,7.87
2024-02-24T08:25:02.510Z,7.98
2024-02-24T08:27:31.099Z,8.10
2024-02-24T08:29:58.132Z,8.28
2024-02-24T08:32:25.441Z,8.43
2024-02-24T08:34:53.978Z,8.60
2024-02-24T08:37:21.025Z,8.79
2024-02-24T08:39:47.982Z,8.84
2024-02-24T08:42:16.646Z,8.72
2024-02-24T08:44:43.503Z,8.66
2024-02-24T08:47:10.493Z,8.65
2024-02-24T08:49:38.765Z,8.64
2024-02-24T08:52:05.757Z,8.62
2024-02-24T08:54:32.826Z,8.53
2024-02-24T08:57:01.234Z,8.50
2024-02-24T08:59:28.465Z,8.48
2024-02-24T09:01:55.594Z,8.45
2024-02-24T09:04:24.079Z,8.43
2024-02-24T09:06:51.321Z,8.46
2024-02-24T09:09:18.565Z,8.44
2024-02-24T09:11:46.813Z,8.43
2024-02-24T09:14:13.897Z,8.37
2024-02-24T09:16:40.827Z,8.33
2024-02-24T09:19:09.076Z,8.28
2024-02-24T09:21:36.156Z,8.21
2024-02-24T09:24:03.063Z,8.18
2024-02-24T09:26:31.363Z,8.20
2024-02-24T09:28:58.309Z,8.20
2024-02-24T09:31:25.152Z,8.18
2024-02-24T09:33:53.419Z,8.17
2024-02-24T09:36:20.479Z,8.12
2024-02-24T09:38:47.587Z,8.08
2024-02-24T09:41:16.010Z,8.07
2024-02-24T09:43:43.165Z,8.13
2024-02-24T09:46:09.994Z,8.20
2024-02-24T09:48:38.360Z,8.24
2024-02-24T09:51:05.648Z,8.28
2024-02-24T09:53:33.076Z,8.43
2024-02-24T09:56:01.448Z,8.62
2024-02-24T09:58:28.508Z,8.87
2024-02-24T10:00:55.545Z,8.96
2024-02-24T10:03:23.835Z,8.88
2024-02-24T10:05:51.046Z,8.81
2024-02-24T10:08:18.341Z,8.90
2024-02-24T10:10:46.520Z,9.06
2024-02-24T10:13:13.665Z,9.20
2024-02-24T10:15:40.489Z,9.30
2024-02-24T10:18:09.477Z,9.51
2024-02-24T10:20:36.670Z,9.69
2024-02-24T10:23:03.884Z,9.87
2024-02-24T10:25:32.272Z,10.00
2024-02-24T10:27:59.424Z,9.95
2024-02-24T10:30:27.068Z,9.89
2024-02-24T10:32:56.126Z,9.76
2024-02-24T10:35:23.456Z,9.59
2024-02-24T10:38:04.043Z,9.45
2024-02-24T10:40:38.942Z,9.42
2024-02-24T10:43:05.960Z,9.50
2024-02-24T10:45:33.008Z,9.54
2024-02-24T10:48:01.503Z,9.59
2024-02-24T10:50:29.081Z,9.68
2024-02-24T10:52:56.118Z,9.74
2024-02-24T10:55:24.470Z,9.71
2024-02-24T10:57:51.962Z,9.80
2024-02-24T11:00:19.065Z,9.92
2024-02-24T11:02:47.393Z,10.14
2024-02-24T11:05:14.751Z,10.33
2024-02-24T11:07:42.065Z,10.49
2024-02-24T11:10:10.346Z,10.64
2024-02-24T11:12:37.669Z,10.83
2024-02-24T11:15:05.004Z,10.99
2024-02-24T11:17:33.391Z,11.20
2024-02-24T11:20:00.668Z,11.47
2024-02-24T11:22:27.706Z,11.68
2024-02-24T11:24:55.784Z,11.79
2024-02-24T11:27:22.730Z,11.83
2024-02-24T11:29:49.847Z,11.76
2024-02-24T11:32:18.533Z,11.65
2024-02-24T11:34:46.544Z,11.51
2024-02-24T11:37:16.237Z,11.46
2024-02-24T11:39:44.800Z,11.60
2024-02-24T11:42:12.121Z,11.81
2024-02-24T11:44:40.506Z,11.85
2024-02-24T11:47:07.593Z,11.87
2024-02-24T11:49:34.599Z,11.88
2024-02-24T11:52:03.031Z,11.75
2024-02-24T11:54:30.164Z,11.66
2024-02-24T11:56:57.151Z,11.65
2024-02-24T11:59:25.550Z,11.66
2024-02-24T12:01:52.662Z,11.77
2024-02-24T12:04:19.521Z,11.93
2024-02-24T12:06:47.836Z,12.01
2024-02-24T12:09:15.122Z,12.04
2024-02-24T12:11:42.231Z,12.22
2024-02-24T12:14:10.538Z,12.39
2024-02-24T12:16:37.486Z,12.80
2024-02-24T12:19:04.598Z,13.44
2024-02-24T12:21:33.004Z,14.38
2024-02-24T12:24:00.164Z,15.24
2024-02-24T12:26:27.462Z,16.14
2024-02-24T12:28:55.770Z,16.89
2024-02-24T12:31:22.733Z,17.38
2024-02-24T12:33:49.747Z,17.98
2024-02-24T12:36:18.460Z,18.91
2024-02-24T12:38:45.456Z,19.70
2024-02-24T12:41:12.552Z,20.09
2024-02-24T12:43:40.854Z,20.52
2024-02-24T12:46:07.778Z,20.76
2024-02-24T12:48:35.031Z,20.62
2024-02-24T12:51:03.574Z,20.39
2024-02-24T12:53:30.678Z,20.50
2024-02-24T12:55:57.797Z,20.61
2024-02-24T12:58:26.092Z,20.43
2024-02-24T13:00:53.033Z,19.84
2024-02-24T13:03:20.000Z,19.42
2024-02-24T13:05:48.322Z,19.01
2024-02-24T13:08:15.469Z,18.97
2024-02-24T13:10:42.629Z,19.02
2024-02-24T13:13:11.040Z,19.09
2024-02-24T13:15:38.074Z,19.10
2024-02-24T13:18:05.561Z,19.24
2024-02-24T13:20:33.980Z,19.07
2024-02-24T13:23:01.047Z,18.70
2024-02-24T13:25:28.126Z,18.37
2024-02-24T13:27:57.319Z,17.91
2024-02-24T13:30:24.296Z,17.39
2024-02-24T13:32:51.740Z,17.02
2024-02-24T13:35:20.201Z,16.82
2024-02-24T13:37:47.238Z,16.96
2024-02-24T13:40:14.495Z,17.05
2024-02-24T13:42:42.758Z,17.25
2024-02-24T13:45:09.743Z,17.48
2024-02-24T13:47:37.013Z,17.72
2024-02-24T13:50:05.527Z,17.75
2024-02-24T13:52:32.380Z,17.86
2024-02-24T13:54:59.312Z,18.16
2024-02-24T13:57:27.698Z,18.35
2024-02-24T13:59:54.842Z,18.30
2024-02-24T14:02:22.199Z,17.96
2024-02-24T14:04:50.594Z,17.83
2024-02-24T14:07:17.578Z,17.71
2024-02-24T14:09:44.763Z,17.45
2024-02-24T14:12:13.298Z,17.09
2024-02-24T14:14:40.443Z,16.70
2024-02-24T14:17:07.332Z,16.37
2024-02-24T14:19:35.733Z,16.23
2024-02-24T14:22:02.668Z,16.14
2024-02-24T14:24:29.914Z,15.98
2024-02-24T14:26:58.334Z,15.66
2024-02-24T14:29:25.442Z,15.35
2024-02-24T14:31:52.289Z,15.04
2024-02-24T14:34:20.718Z,14.73
2024-02-24T14:36:47.918Z,14.46
2024-02-24T14:39:15.456Z,14.23
2024-02-24T14:41:43.661Z,14.02
2024-02-24T14:44:10.580Z,13.82
2024-02-24T14:46:37.421Z,13.61
2024-02-24T14:49:05.977Z,13.39
2024-02-24T14:51:33.052Z,13.24
2024-02-24T14:54:00.242Z,13.15
2024-02-24T14:56:28.499Z,13.06
2024-02-24T14:58:55.530Z,12.96
2024-02-24T15:01:22.541Z,12.86
2024-02-24T15:03:51.002Z,12.82
2024-02-24T15:06:18.505Z,12.84
2024-02-24T15:08:45.525Z,12.83
2024-02-24T15:11:13.890Z,12.78
2024-02-24T15:13:41.081Z,12.72
2024-02-24T15:16:08.039Z,12.69
2024-02-24T15:18:36.701Z,12.70
2024-02-24T15:21:03.988Z,12.69
2024-02-24T15:23:31.048Z,12.72
2024-02-24T15:25:59.317Z,12.77
2024-02-24T15:28:27.079Z,12.78
2024-02-24T15:30:54.205Z,12.67
2024-02-24T15:33:22.671Z,12.52
2024-02-24T15:35:49.697Z,12.36
2024-02-24T15:38:17.016Z,12.19
2024-02-24T15:40:48.433Z,12.02
2024-02-24T15:43:15.573Z,11.83
2024-02-24T15:45:43.538Z,11.62
2024-02-24T15:48:10.544Z,11.41
2024-02-24T15:50:37.605Z,11.22
2024-02-24T15:53:05.728Z,11.03
2024-02-24T15:55:32.863Z,10.84
2024-02-24T15:57:59.798Z,10.65
2024-02-24T16:00:28.073Z,10.46
2024-02-24T16:02:55.264Z,10.29
2024-02-24T16:05:22.432Z,10.13
2024-02-24T16:07:50.769Z,9.98
2024-02-24T16:10:17.802Z,9.84
2024-02-24T16:12:44.838Z,9.70
2024-02-24T16:15:13.132Z,9.55
2024-02-24T16:17:40.143Z,9.42
2024-02-24T16:20:07.238Z,9.28
2024-02-24T16:22:35.378Z,9.14
2024-02-24T16:25:02.324Z,9.00
2024-02-24T16:27:29.270Z,8.88
2024-02-24T16:29:57.467Z,8.76
2024-02-24T16:32:24.506Z,8.63
2024-02-24T16:37:37.162Z,8.35
2024-02-24T16:40:04.290Z,8.23
2024-02-24T16:42:31.420Z,8.12
2024-02-24T16:44:59.650Z,8.02
2024-02-24T16:47:26.800Z,7.93
2024-02-24T16:49:54.078Z,7.85
2024-02-24T16:52:22.348Z,7.78
2024-02-24T16:54:49.317Z,7.71
2024-02-24T16:57:16.804Z,7.64
2024-02-24T16:59:45.477Z,7.57
2024-02-24T17:02:12.594Z,7.51
2024-02-24T17:04:39.439Z,7.44
2024-02-24T17:07:07.990Z,7.38
2024-02-24T17:09:34.887Z,7.34
2024-02-24T17:12:02.081Z,7.29
2024-02-24T17:14:30.531Z,7.25
2024-02-24T17:16:57.599Z,7.21
2024-02-24T17:19:25.103Z,7.17
2024-02-24T17:21:53.484Z,7.13
2024-02-24T17:24:20.433Z,7.08
2024-02-24T17:26:47.540Z,7.03
2024-02-24T17:29:15.961Z,6.99
2024-02-24T17:31:42.891Z,6.96
2024-02-24T17:34:09.794Z,6.93
2024-02-24T17:36:38.213Z,6.90
2024-02-24T17:39:05.210Z,6.87
2024-02-24T17:41:32.193Z,6.84
2024-02-24T17:44:00.581Z,6.81
2024-02-24T17:46:27.596Z,6.78
2024-02-24T17:48:54.931Z,6.76
2024-02-24T17:51:23.255Z,6.72
2024-02-24T17:53:50.244Z,6.70
2024-02-24T17:56:17.365Z,6.68
2024-02-24T17:58:47.904Z,6.66
2024-02-24T18:01:15.784Z,6.64
2024-02-24T18:03:44.256Z,6.62
2024-02-24T18:06:11.514Z,6.61
2024-02-24T18:08:38.646Z,6.57
2024-02-24T18:11:06.896Z,6.53
2024-02-24T18:13:33.842Z,6.49
2024-02-24T18:16:00.709Z,6.45
2024-02-24T18:18:29.178Z,6.42
2024-02-24T18:20:56.542Z,6.38
2024-02-24T18:23:24.223Z,6.35
2024-02-24T18:25:52.365Z,6.30
2024-02-24T18:28:19.405Z,6.26
2024-02-24T18:30:46.338Z,6.22
2024-02-24T18:33:16.130Z,6.18
2024-02-24T18:35:43.127Z,6.15
2024-02-24T18:38:10.367Z,6.10
2024-02-24T18:40:38.828Z,6.06
2024-02-24T18:43:05.791Z,6.04
2024-02-24T18:45:32.929Z,6.01
2024-02-24T18:48:01.911Z,5.99
2024-02-24T18:50:29.092Z,5.97
2024-02-24T18:52:56.211Z,5.95
2024-02-24T18:55:24.598Z,5.94
2024-02-24T18:57:51.540Z,5.92
2024-02-24T19:00:18.655Z,5.90
2024-02-24T19:02:46.982Z,5.87
2024-02-24T19:05:14.801Z,5.84
2024-02-24T19:07:41.974Z,5.81
2024-02-24T19:10:10.563Z,5.77
2024-02-24T19:12:37.407Z,5.76
2024-02-24T19:15:04.462Z,5.74
2024-02-24T19:17:32.814Z,5.72
2024-02-24T19:20:00.086Z,5.70
2024-02-24T19:22:27.222Z,5.68
2024-02-24T19:24:55.501Z,5.67
2024-02-24T19:27:22.454Z,5.66
2024-02-24T19:29:49.423Z,5.65
2024-02-24T19:32:18.122Z,5.62
2024-02-24T19:34:45.233Z,5.59
2024-02-24T19:37:12.485Z,5.58
2024-02-24T19:39:40.758Z,5.55
2024-02-24T19:42:07.764Z,5.52
2024-02-24T19:44:34.924Z,5.46
2024-02-24T19:47:03.644Z,5.42
2024-02-24T19:49:30.835Z,5.37
2024-02-24T19:51:58.132Z,5.32
2024-02-24T19:54:26.516Z,5.27
2024-02-24T19:56:53.613Z,5.22
2024-02-24T19:59:20.805Z,5.16
2024-02-24T20:01:49.103Z,5.13
2024-02-24T20:04:16.292Z,5.11
2024-02-24T20:06:43.535Z,5.09
2024-02-24T20:09:12.096Z,5.05
2024-02-24T20:11:39.254Z,5.03
2024-02-24T20:14:06.657Z,5.00
2024-02-24T20:16:34.937Z,4.99
2024-02-24T20:19:02.068Z,4.96
2024-02-24T20:21:29.336Z,4.94
2024-02-24T20:23:57.679Z,4.92
2024-02-24T20:26:24.900Z,4.89
2024-02-24T20:28:52.034Z,4.85
2024-02-24T20:31:20.393Z,4.83
2024-02-24T20:33:53.485Z,4.80
2024-02-24T20:36:29.235Z,4.78
2024-02-24T20:38:56.380Z,4.77
2024-02-24T20:41:23.726Z,4.75
2024-02-24T20:43:52.174Z,4.72
2024-02-24T20:46:19.154Z,4.72
2024-02-24T20:48:46.307Z,4.72
2024-02-24T20:51:14.702Z,4.72
2024-02-24T20:53:42.062Z,4.72
2024-02-24T20:56:08.974Z,4.73
2024-02-24T20:58:37.221Z,4.70
2024-02-24T21:01:04.384Z,4.68
2024-02-24T21:03:31.639Z,4.67
2024-02-24T21:06:00.028Z,4.67
2024-02-24T21:08:27.242Z,4.67
2024-02-24T21:10:54.336Z,4.67
2024-02-24T21:13:22.923Z,4.66
2024-02-24T21:15:49.857Z,4.65
2024-02-24T21:18:17.037Z,4.65
2024-02-24T21:20:45.529Z,4.65
2024-02-24T21:23:12.653Z,4.65
2024-02-24T21:25:39.996Z,4.63
2024-02-24T21:28:08.160Z,4.61
2024-02-24T21:30:35.224Z,4.59
2024-02-24T21:33:02.416Z,4.58
2024-02-24T21:35:30.885Z,4.57
2024-02-24T21:37:57.999Z,4.56
2024-02-24T21:40:25.027Z,4.56
2024-02-24T21:42:53.212Z,4.53
2024-02-24T21:45:20.159Z,4.51
2024-02-24T21:47:47.551Z,4.50
2024-02-24T21:50:15.880Z,4.50
2024-02-24T21:52:42.718Z,4.51
2024-02-24T21:55:09.663Z,4.50
2024-02-24T21:57:38.153Z,4.47
2024-02-24T22:00:05.290Z,4.45
2024-02-24T22:02:32.365Z,4.44
2024-02-24T22:05:00.632Z,4.45
2024-02-24T22:07:27.663Z,4.50
2024-02-24T22:09:54.603Z,4.56
2024-02-24T22:12:22.818Z,4.62
2024-02-24T22:14:49.740Z,4.69
2024-02-24T22:17:16.674Z,4.76
2024-02-24T22:19:45.195Z,4.83
2024-02-24T22:22:12.195Z,4.89
2024-02-24T22:24:39.651Z,4.94
2024-02-24T22:27:07.859Z,5.00
2024-02-24T22:29:34.943Z,5.04
2024-02-24T22:32:02.124Z,5.08
2024-02-24T22:34:30.556Z,5.10
2024-02-24T22:36:57.966Z,5.14
2024-02-24T22:39:24.692Z,5.15
2024-02-24T22:41:53.299Z,5.16
2024-02-24T22:44:20.691Z,5.17
2024-02-24T22:46:47.795Z,5.17
2024-02-24T22:49:16.300Z,5.17
2024-02-24T22:51:43.630Z,5.18
2024-02-24T22:54:10.813Z,5.17
2024-02-24T22:56:39.391Z,5.17
2024-02-24T22:59:06.514Z,5.17
2024-02-24T23:01:33.541Z,5.17
2024-02-24T23:04:02.572Z,5.17
2024-02-24T23:06:30.020Z,5.16
2024-02-24T23:08:57.094Z,5.16
2024-02-24T23:11:32.847Z,5.16
2024-02-24T23:14:05.583Z,5.15
2024-02-24T23:16:32.534Z,5.14
2024-02-24T23:19:00.241Z,5.14
2024-02-24T23:21:28.928Z,5.13
2024-02-24T23:23:56.335Z,5.12
2024-02-24T23:26:23.395Z,5.11
2024-02-24T23:28:51.959Z,5.11
2024-02-24T23:31:18.996Z,5.10
2024-02-24T23:33:46.257Z,5.10
2024-02-24T23:36:14.870Z,5.10
2024-02-24T23:38:42.003Z,5.09
2024-02-24T23:41:09.012Z,5.10
2024-02-24T23:43:37.622Z,5.10
2024-02-24T23:46:04.856Z,5.09
2024-02-24T23:48:32.379Z,5.07
2024-02-24T23:51:00.821Z,5.05
2024-02-24T23:53:28.151Z,5.03
2024-02-24T23:55:54.976Z,5.02
2024-02-24T23:58:23.451Z,5.00
